Beaufort, SC

4:48 PM EDT on September 30, 2014 (GMT -0400)
May River Old Town Bluffton | Change Station
CLOSE
Current Station
Personal Weather Station
Location: Bluffton, SC
Elevation: 0 ft
Nearby Weather Stations

Elev 0 ft 32.23 °N, 80.86 °W | Updated 7 seconds ago

Partly Cloudy
Partly Cloudy
80.0 °F
Feels Like 82 °F
N
0.0
Wind Variable Wind from WNW
Gusts 3.0 mph

Today
High -- | Low -- °F
--% Chance of Precip.
Yesterday
High -- | Low -- °F
Precip. -- in
7:16 AM 7:08 PM
Waxing Crescent, 40% visible
Pressure 29.85 in
Visibility 10.0 miles
Clouds Few 4000 ft
Heat Index 82 °F
Dew Point 67 °F
Humidity 65%
Rainfall 0.00 in
Snow Depth Not available.
UV 5 out of 12
Pollen 5.30 out of 12
Air Quality Not available.
Flu Activity Not available.
METAR KNBC 301956Z 01008KT 10SM FEW040 28/17 A2985 RMK AO2 SLP107 T02830172

More Conditions Fewer Conditions

Pressure 29.85 in
Visibility 10.0 miles
Clouds Few 4000 ft
Heat Index 82 °F
Dew Point 67 °F
Humidity 65%
Rainfall 0.00 in
Snow Depth Not available.
UV 5 out of 12
Pollen 5.30 out of 12
Air Quality Not available.
Flu Activity Not available.
METAR KNBC 301956Z 01008KT 10SM FEW040 28/17 A2985 RMK AO2 SLP107 T02830172

More Conditions Fewer Conditions

10-Day Weather Forecast

Almanac

Astronomy

Sep. 30, 2014 Rise Set
Actual Time 7:16 AM EDT 7:08 PM EDT
Civil Twilight 6:51 AM EDT 7:33 PM EDT
Nautical Twilight 6:23 AM EDT 8:01 PM EDT
Astronomical Twilight 5:54 AM EDT 8:30 PM EDT
Moon 1:07 PM EDT 11:52 PM EDT
Length of Visible Light 12h 41m
Length of Day
11h 52m
Tomorrow will be 1m 59s shorter.
Waxing Crescent, 40% of the Moon is Illuminated
Today
Waxing Crescent
Oct 1
First Quarter
Oct 8
Full
Oct 15
Last Quarter
Oct 23
New

Today's Extremes

State Highs State Lows

Community

WunderPhotos

Upload Photos

1,757,743 photos uploaded!

Nearby

Snow Depth

Station Depth Elevation
No new snow has been reported.

Earthquake Activity

City Distance Mag. Time & Date
No recent earthquake activity has been reported nearby.
Minimum magnitude displayed is 2.5.

Coastal Water Temperatures

Place Temperature
No Stations Reporting

Nearby Weather Stations